• Join FlightAware (Why Join?)
  • Login
  • US Flag 
 
09:06AM EST


 

Airport Tracker/Info


-or-


 

Live Flight TrackerFlight Track Log ✈ CFS800 ✈ 25-Apr-2013 ✈ KGEG - KPDT

Flight Track Log - Related Links

Times and Time Zones

All times are in EDT time to prevent confusion due to time zone crossing. See the CFS800 flight status page for this flight to view local times or setup timezone preferences in your user account.

Time Position Orientation Groundspeed Altitude Reporting Facility
EDT Latitude Longitude Course Direction KTS MPH feet Rate Location/Type
10:35AM 47.4825 -117.6383 207° Southwest 129 148 6,400  Level Seattle Center
10:36AM 47.3822 -117.6874 202° Southwest  Level FlightAware Approximate
10:36AM 47.4444 -117.6639 204° Southwest 149 171 6,400  Level Seattle Center
10:37AM 47.3425 -117.7112 202° Southwest  Level FlightAware Approximate
10:37AM 47.4017 -117.6953 206° Southwest 169 194 6,400  Level Seattle Center
10:38AM 47.3039 -117.7388 207° Southwest  Level FlightAware Approximate
10:38AM 47.3589 -117.7256 206° Southwest 171 197 6,400  Level Seattle Center
10:39AM 47.2658 -117.7674 207° Southwest  Level FlightAware Approximate
10:39AM 47.3075 -117.7606 205° Southwest 170 196 6,400  Level Seattle Center
10:40AM 47.2276 -117.7961 207° Southwest  Level FlightAware Approximate
10:40AM 47.2647 -117.7900 205° Southwest 170 196 6,400  Level Seattle Center
10:41AM 47.2231 -117.8194 206° Southwest 168 193 6,400  Level Seattle Center
10:42AM 47.1811 -117.8492 206° Southwest 168 193 6,400  Level Seattle Center
10:43AM 47.1381 -117.8775 204° Southwest 170 196 6,400  Level Seattle Center
10:44AM 47.0953 -117.9086 206° Southwest 171 197 6,400  Level Seattle Center
10:45AM 47.0528 -117.9350 203° Southwest 167 192 6,400  Level Seattle Center
10:46AM 47.0106 -117.9653 206° Southwest 168 193 6,400  Level Seattle Center
10:47AM 46.9683 -117.9942 205° Southwest 168 193 6,400  Level Seattle Center
10:48AM 46.9258 -118.0228 205° Southwest 168 193 6,400  Level Seattle Center
10:49AM 46.8833 -118.0525 206° Southwest 169 194 6,400  Level Seattle Center
10:50AM 46.8394 -118.0808 204° Southwest 171 197 6,400  Level Seattle Center
10:51AM 46.7978 -118.1089 205° Southwest 169 194 6,400  Level Seattle Center
10:52AM 46.7483 -118.1433 206° Southwest 162 186 6,400  Level Seattle Center
10:53AM 46.7072 -118.1722 206° Southwest 165 190 6,400  Level Seattle Center
10:54AM 46.6653 -118.1997 204° Southwest 166 191 6,400  Level Seattle Center
10:55AM 46.6236 -118.2286 205° Southwest 165 190 6,400  Level Seattle Center
10:56AM 46.5825 -118.2569 205° Southwest 164 189 6,400  Level Seattle Center
10:57AM 46.5408 -118.2831 203° Southwest 164 189 6,400  Level Seattle Center
10:58AM 46.5011 -118.3117 206° Southwest 162 186 6,400  Level Seattle Center
10:59AM 46.4711 -118.3458 218° Southwest 155 178 6,500  Climbing Seattle Center
11:00AM 46.4303 -118.3553 189° South 144 166 6,500  Level Seattle Center
11:01AM 46.3883 -118.3842 205° Southwest 156 180 6,500  Level Seattle Center
11:02AM 46.3475 -118.4136 206° Southwest 163 188 6,500  Level Seattle Center
11:03AM 46.3056 -118.4425 205° Southwest 165 190 6,500  Level Seattle Center
11:04AM 46.2642 -118.4681 203° Southwest 164 189 6,500  Level Seattle Center
11:05AM 46.2217 -118.4947 203° Southwest 165 190 6,500  Level Seattle Center
11:06AM 46.1717 -118.5278 205° Southwest 165 190 6,500  Level Seattle Center
11:07AM 46.1300 -118.5553 205° Southwest 165 190 6,500  Level Seattle Center
11:08AM 46.0889 -118.5831 205° Southwest 165 190 6,500  Level Seattle Center
11:09AM 46.0467 -118.6078 202° Southwest 164 189 6,500  Level Seattle Center
11:10AM 46.0058 -118.6356 205° Southwest 164 189 6,500  Level Seattle Center
11:11AM 45.9644 -118.6647 206° Southwest 164 189 6,500 -360 Level Seattle Center
11:12AM 45.9225 -118.6931 205° Southwest 165 190 5,800 -780 Descending Seattle Center
11:13AM 45.8792 -118.7233 206° Southwest 169 194 5,000 -600 Descending Seattle Center
11:14AM 45.8308 -118.7547 204° Southwest 169 194 4,600 -600 Descending Seattle Center
11:15AM 45.7972 -118.7764 204° Southwest 168 193 3,900 -720 Descending Seattle Center